Time,TemperatureF,DewpointF,PressureIn,WindDirection,WindDirectionDegrees,WindSpeedMPH,WindSpeedGustMPH,Humidity,HourlyPrecipIn,Conditions,Clouds,dailyrainin,SolarRadiationWatts/m^2,SoftwareType,DateUTC
2013-07-17 00:01:00,77.0,66.0,-100.00,WNW,292,2.0,6.0,69,0.00,,,-99.99,1.000000,,2013-07-17 07:01:00,
2013-07-17 00:42:00,77.0,66.0,-100.00,NW,305,3.0,4.0,69,0.00,,,-99.99,1.000000,,2013-07-17 07:42:00,
2013-07-17 00:52:00,77.0,66.0,-100.00,NW,305,3.0,4.0,69,0.00,,,-99.99,1.000000,,2013-07-17 07:52:00,
2013-07-17 01:01:00,77.0,66.0,-100.00,NW,305,3.0,4.0,69,0.00,,,-99.99,1.000000,,2013-07-17 08:01:00,
2013-07-17 01:32:00,77.0,66.0,-100.00,SE,136,2.0,4.0,69,0.00,,,-99.99,1.000000,,2013-07-17 08:32:00,
2013-07-17 01:43:00,77.0,66.0,-100.00,SE,136,2.0,4.0,69,0.00,,,-99.99,1.000000,,2013-07-17 08:43:00,
2013-07-17 01:53:00,77.0,66.0,-100.00,SE,136,2.0,4.0,69,0.00,,,-99.99,1.000000,,2013-07-17 08:53:00,
2013-07-17 02:01:00,77.0,66.0,-100.00,SE,136,2.0,4.0,69,0.00,,,-99.99,1.000000,,2013-07-17 09:01:00,
2013-07-17 02:32:00,76.0,66.0,-100.00,SSE,152,3.0,4.0,71,0.00,,,-99.99,1.000000,,2013-07-17 09:32:00,
2013-07-17 02:43:00,76.0,66.0,-100.00,SSE,152,3.0,4.0,71,0.00,,,-99.99,1.000000,,2013-07-17 09:43:00,
2013-07-17 02:52:00,76.0,66.0,-100.00,SSE,152,3.0,4.0,71,0.00,,,-99.99,1.000000,,2013-07-17 09:52:00,
2013-07-17 03:01:00,76.0,66.0,-100.00,SSE,152,3.0,4.0,71,0.00,,,-99.99,1.000000,,2013-07-17 10:01:00,
2013-07-17 03:32:00,76.0,66.0,-100.00,ESE,110,2.0,5.0,72,0.00,,,-99.99,1.000000,,2013-07-17 10:32:00,
2013-07-17 03:43:00,76.0,66.0,-100.00,ESE,110,2.0,5.0,72,0.00,,,-99.99,1.000000,,2013-07-17 10:43:00,
2013-07-17 03:52:00,76.0,66.0,-100.00,ESE,110,2.0,5.0,72,0.00,,,-99.99,1.000000,,2013-07-17 10:52:00,
2013-07-17 04:01:00,76.0,66.0,-100.00,ESE,110,2.0,5.0,72,0.00,,,-99.99,1.000000,,2013-07-17 11:01:00,
2013-07-17 04:42:00,75.0,66.0,-100.00,WNW,292,3.0,4.0,73,0.00,,,-99.99,1.000000,,2013-07-17 11:42:00,
2013-07-17 04:52:00,75.0,66.0,-100.00,WNW,292,3.0,4.0,73,0.00,,,-99.99,1.000000,,2013-07-17 11:52:00,
2013-07-17 05:01:00,75.0,66.0,-100.00,WNW,292,3.0,4.0,73,0.00,,,-99.99,1.000000,,2013-07-17 12:01:00,
2013-07-17 05:32:00,76.0,66.0,-100.00,WNW,297,2.0,5.0,71,0.00,,,-99.99,1.000000,,2013-07-17 12:32:00,
2013-07-17 05:42:00,76.0,66.0,-100.00,WNW,297,2.0,5.0,71,0.00,,,-99.99,1.000000,,2013-07-17 12:42:00,
2013-07-17 05:53:00,76.0,66.0,-100.00,WNW,297,2.0,5.0,71,0.00,,,-99.99,1.000000,,2013-07-17 12:53:00,
2013-07-17 06:01:00,76.0,66.0,-100.00,WNW,297,2.0,5.0,71,0.00,,,-99.99,1.000000,,2013-07-17 13:01:00,
2013-07-17 06:43:00,79.0,66.0,-100.00,NNE,16,4.0,14.0,65,0.00,,,-99.99,13.000000,,2013-07-17 13:43:00,
2013-07-17 06:52:00,79.0,66.0,-100.00,NNE,16,4.0,14.0,65,0.00,,,-99.99,13.000000,,2013-07-17 13:52:00,
2013-07-17 07:02:00,79.0,66.0,-100.00,NNE,16,4.0,14.0,65,0.00,,,-99.99,13.000000,,2013-07-17 14:02:00,
2013-07-17 07:43:00,88.0,56.0,-100.00,ENE,71,8.0,18.0,34,0.00,,,-99.99,191.000000,,2013-07-17 14:43:00,
2013-07-17 07:52:00,88.0,56.0,-100.00,ENE,71,8.0,18.0,34,0.00,,,-99.99,191.000000,,2013-07-17 14:52:00,
2013-07-17 08:01:00,88.0,56.0,-100.00,ENE,71,8.0,18.0,34,0.00,,,-99.99,191.000000,,2013-07-17 15:01:00,
2013-07-17 08:32:00,87.0,52.0,-100.00,ENE,72,7.0,20.0,30,0.00,,,-99.99,281.000000,,2013-07-17 15:32:00,
2013-07-17 08:42:00,87.0,52.0,-100.00,ENE,72,7.0,20.0,30,0.00,,,-99.99,281.000000,,2013-07-17 15:42:00,
2013-07-17 08:52:00,87.0,52.0,-100.00,ENE,72,7.0,20.0,30,0.00,,,-99.99,281.000000,,2013-07-17 15:52:00,
2013-07-17 09:01:00,87.0,52.0,-100.00,ENE,72,7.0,20.0,30,0.00,,,-99.99,281.000000,,2013-07-17 16:01:00,
2013-07-17 09:33:00,92.0,54.0,-100.00,ESE,105,9.0,17.0,28,0.00,,,-99.99,564.000000,,2013-07-17 16:33:00,
2013-07-17 09:42:00,92.0,54.0,-100.00,ESE,105,9.0,17.0,28,0.00,,,-99.99,564.000000,,2013-07-17 16:42:00,
2013-07-17 09:52:00,92.0,54.0,-100.00,ESE,105,9.0,17.0,28,0.00,,,-99.99,564.000000,,2013-07-17 16:52:00,
2013-07-17 10:01:00,92.0,54.0,-100.00,ESE,105,9.0,17.0,28,0.00,,,-99.99,564.000000,,2013-07-17 17:01:00,
2013-07-17 10:32:00,93.0,55.0,-100.00,East,100,9.0,19.0,28,0.00,,,0.00,721.000000,,2013-07-17 17:32:00,
2013-07-17 10:43:00,93.0,55.0,-100.00,East,100,9.0,19.0,28,0.00,,,0.00,721.000000,,2013-07-17 17:43:00,
2013-07-17 10:52:00,93.0,55.0,-100.00,East,100,9.0,19.0,28,0.00,,,0.00,721.000000,,2013-07-17 17:52:00,
2013-07-17 11:01:00,93.0,55.0,-100.00,East,100,9.0,19.0,28,0.00,,,0.00,721.000000,,2013-07-17 18:01:00,
2013-07-17 11:43:00,95.0,55.0,-100.00,ENE,66,9.0,16.0,26,0.00,,,0.00,855.000000,,2013-07-17 18:43:00,
2013-07-17 11:52:00,95.0,55.0,-100.00,ENE,66,9.0,16.0,26,0.00,,,0.00,855.000000,,2013-07-17 18:52:00,
2013-07-17 12:01:00,95.0,55.0,-100.00,ENE,66,9.0,16.0,26,0.00,,,0.00,855.000000,,2013-07-17 19:01:00,
2013-07-17 12:43:00,96.0,53.0,-100.00,East,80,10.0,18.0,24,0.00,,,0.00,934.000000,,2013-07-17 19:43:00,
2013-07-17 12:53:00,96.0,53.0,-100.00,East,80,10.0,18.0,24,0.00,,,0.00,934.000000,,2013-07-17 19:53:00,
2013-07-17 13:01:00,96.0,53.0,-100.00,East,80,10.0,18.0,24,0.00,,,0.00,934.000000,,2013-07-17 20:01:00,
2013-07-17 13:33:00,98.0,54.0,-100.00,East,100,10.0,19.0,23,0.00,,,0.00,967.000000,,2013-07-17 20:33:00,
2013-07-17 13:43:00,98.0,54.0,-100.00,East,100,10.0,19.0,23,0.00,,,0.00,967.000000,,2013-07-17 20:43:00,
2013-07-17 13:52:00,98.0,54.0,-100.00,East,100,10.0,19.0,23,0.00,,,0.00,967.000000,,2013-07-17 20:52:00,
2013-07-17 14:01:00,98.0,54.0,-100.00,East,100,10.0,19.0,23,0.00,,,0.00,967.000000,,2013-07-17 21:01:00,
2013-07-17 14:32:00,99.0,55.0,-100.00,SE,128,7.0,15.0,23,0.00,,,0.00,941.000000,,2013-07-17 21:32:00,
2013-07-17 14:42:00,99.0,55.0,-100.00,SE,128,7.0,15.0,23,0.00,,,0.00,941.000000,,2013-07-17 21:42:00,
2013-07-17 14:52:00,99.0,55.0,-100.00,SE,128,7.0,15.0,23,0.00,,,0.00,941.000000,,2013-07-17 21:52:00,
2013-07-17 15:01:00,99.0,55.0,-100.00,SE,128,7.0,15.0,23,0.00,,,0.00,941.000000,,2013-07-17 22:01:00,
2013-07-17 15:43:00,95.0,49.0,-100.00,ESE,112,9.0,17.0,21,0.00,,,-99.99,673.000000,,2013-07-17 22:43:00,
2013-07-17 15:53:00,95.0,49.0,-100.00,ESE,112,9.0,17.0,21,0.00,,,-99.99,673.000000,,2013-07-17 22:53:00,
2013-07-17 16:01:00,95.0,49.0,-100.00,ESE,112,9.0,17.0,21,0.00,,,-99.99,673.000000,,2013-07-17 23:01:00,
2013-07-17 16:43:00,96.0,52.0,-100.00,East,97,6.0,18.0,23,0.00,,,0.00,447.000000,,2013-07-17 23:43:00,
2013-07-17 16:52:00,96.0,52.0,-100.00,East,97,6.0,18.0,23,0.00,,,0.00,447.000000,,2013-07-17 23:52:00,
2013-07-17 17:01:00,96.0,52.0,-100.00,East,97,6.0,18.0,23,0.00,,,0.00,447.000000,,2013-07-18 00:01:00,
2013-07-17 17:33:00,98.0,54.0,-100.00,ESE,114,8.0,15.0,23,0.00,,,0.00,365.000000,,2013-07-18 00:33:00,
2013-07-17 17:43:00,98.0,54.0,-100.00,ESE,114,8.0,15.0,23,0.00,,,0.00,365.000000,,2013-07-18 00:43:00,
2013-07-17 17:52:00,98.0,54.0,-100.00,ESE,114,8.0,15.0,23,0.00,,,0.00,365.000000,,2013-07-18 00:52:00,
2013-07-17 18:01:00,98.0,54.0,-100.00,ESE,114,8.0,15.0,23,0.00,,,0.00,365.000000,,2013-07-18 01:01:00,
2013-07-17 18:32:00,94.0,52.0,-100.00,SSE,148,8.0,16.0,24,0.00,,,0.00,113.000000,,2013-07-18 01:32:00,
2013-07-17 18:43:00,94.0,52.0,-100.00,SSE,148,8.0,16.0,24,0.00,,,0.00,113.000000,,2013-07-18 01:43:00,
2013-07-17 18:53:00,94.0,52.0,-100.00,SSE,148,8.0,16.0,24,0.00,,,0.00,113.000000,,2013-07-18 01:53:00,
2013-07-17 19:01:00,94.0,52.0,-100.00,SSE,148,8.0,16.0,24,0.00,,,0.00,113.000000,,2013-07-18 02:01:00,
2013-07-17 19:32:00,93.0,52.0,-100.00,East,93,6.0,16.0,25,0.00,,,0.00,30.000000,,2013-07-18 02:32:00,
2013-07-17 19:43:00,93.0,52.0,-100.00,East,93,6.0,16.0,25,0.00,,,0.00,30.000000,,2013-07-18 02:43:00,
2013-07-17 19:52:00,93.0,52.0,-100.00,East,93,6.0,16.0,25,0.00,,,0.00,30.000000,,2013-07-18 02:52:00,
2013-07-17 20:01:00,93.0,52.0,-100.00,East,93,6.0,16.0,25,0.00,,,0.00,30.000000,,2013-07-18 03:01:00,
2013-07-17 20:32:00,88.0,54.0,-100.00,NNE,33,7.0,21.0,32,0.00,,,0.00,2.000000,,2013-07-18 03:32:00,
2013-07-17 20:43:00,88.0,54.0,-100.00,NNE,33,7.0,21.0,32,0.00,,,0.00,2.000000,,2013-07-18 03:43:00,
2013-07-17 20:52:00,88.0,54.0,-100.00,NNE,33,7.0,21.0,32,0.00,,,0.00,2.000000,,2013-07-18 03:52:00,
2013-07-17 21:01:00,88.0,54.0,-100.00,NNE,33,7.0,21.0,32,0.00,,,0.00,2.000000,,2013-07-18 04:01:00,
2013-07-17 21:32:00,89.0,54.0,-100.00,ENE,78,8.0,15.0,31,0.00,,,0.00,1.000000,,2013-07-18 04:32:00,
2013-07-17 21:43:00,89.0,54.0,-100.00,ENE,78,8.0,15.0,31,0.00,,,0.00,1.000000,,2013-07-18 04:43:00,
2013-07-17 21:52:00,89.0,54.0,-100.00,ENE,78,8.0,15.0,31,0.00,,,0.00,1.000000,,2013-07-18 04:52:00,
2013-07-17 22:01:00,89.0,54.0,-100.00,ENE,78,8.0,15.0,31,0.00,,,0.00,1.000000,,2013-07-18 05:01:00,
2013-07-17 22:32:00,87.0,51.0,-100.00,ENE,64,10.0,20.0,29,0.00,,,0.00,1.000000,,2013-07-18 05:32:00,
2013-07-17 22:42:00,87.0,51.0,-100.00,ENE,64,10.0,20.0,29,0.00,,,0.00,1.000000,,2013-07-18 05:42:00,
2013-07-17 22:52:00,87.0,51.0,-100.00,ENE,64,10.0,20.0,29,0.00,,,0.00,1.000000,,2013-07-18 05:52:00,
2013-07-17 23:01:00,87.0,51.0,-100.00,ENE,64,10.0,20.0,29,0.00,,,0.00,1.000000,,2013-07-18 06:01:00,
2013-07-17 23:43:00,86.0,52.0,-100.00,WNW,287,5.0,19.0,31,0.00,,,0.00,1.000000,,2013-07-18 06:43:00,
2013-07-17 23:52:00,86.0,52.0,-100.00,WNW,287,5.0,19.0,31,0.00,,,0.00,1.000000,,2013-07-18 06:52:00,